createdAt,value
2018-09-05T00:00:35.124Z,29.50
2018-09-05T00:01:35.172Z,31.60
2018-09-05T00:02:35.158Z,30.50
2018-09-05T00:03:35.107Z,28.30
2018-09-05T00:04:35.082Z,28.90
2018-09-05T00:05:35.066Z,30.10
2018-09-05T00:06:35.055Z,29.90
2018-09-05T00:07:35.064Z,29.80
2018-09-05T00:08:35.031Z,31.20
2018-09-05T00:09:35.012Z,31.10
2018-09-05T00:10:35.012Z,30.70
2018-09-05T00:11:34.996Z,31.10
2018-09-05T00:12:35.014Z,31.00
2018-09-05T00:13:34.983Z,30.70
2018-09-05T00:14:34.967Z,31.20
2018-09-05T00:15:34.958Z,31.40
2018-09-05T00:16:34.944Z,32.90
2018-09-05T00:17:34.978Z,32.20
2018-09-05T00:18:34.942Z,31.20
2018-09-05T00:19:34.913Z,33.30
2018-09-05T00:20:34.904Z,33.30
2018-09-05T00:21:34.892Z,35.40
2018-09-05T00:22:34.908Z,34.30
2018-09-05T00:23:34.900Z,33.30
2018-09-05T00:24:34.855Z,32.30
2018-09-05T00:25:34.850Z,34.80
2018-09-05T00:26:34.835Z,34.20
2018-09-05T00:27:34.825Z,34.70
2018-09-05T00:28:34.850Z,34.40
2018-09-05T00:29:34.826Z,33.60
2018-09-05T00:30:34.793Z,32.10
2018-09-05T00:31:34.774Z,33.90
2018-09-05T00:32:34.764Z,32.70
2018-09-05T00:33:34.781Z,32.10
2018-09-05T00:34:34.752Z,31.70
2018-09-05T00:35:34.727Z,32.30
2018-09-05T00:36:34.724Z,33.80
2018-09-05T00:37:34.708Z,31.10
2018-09-05T00:38:34.730Z,30.30
2018-09-05T00:39:34.688Z,30.30
2018-09-05T00:40:34.676Z,30.10
2018-09-05T00:41:34.666Z,28.80
2018-09-05T00:42:34.649Z,30.50
2018-09-05T00:43:34.672Z,31.90
2018-09-05T00:44:34.654Z,32.20
2018-09-05T00:45:34.613Z,30.50
2018-09-05T00:46:34.605Z,30.80
2018-09-05T00:47:34.585Z,29.80
2018-09-05T00:48:34.581Z,29.40
2018-09-05T00:49:34.603Z,31.00
2018-09-05T00:50:34.549Z,31.70
2018-09-05T00:51:34.545Z,31.90
2018-09-05T00:52:34.536Z,33.10
2018-09-05T00:53:34.520Z,33.90
2018-09-05T00:54:34.542Z,32.10
2018-09-05T00:55:34.540Z,33.60
2018-09-05T00:56:34.512Z,34.70
2018-09-05T00:57:34.470Z,32.60
2018-09-05T00:58:34.469Z,32.90
2018-09-05T00:59:34.481Z,33.30
2018-09-05T01:00:34.438Z,32.10
2018-09-05T01:01:34.428Z,33.80
2018-09-05T01:02:34.411Z,33.60
2018-09-05T01:03:34.416Z,34.20
2018-09-05T01:04:34.426Z,32.60
2018-09-05T01:05:34.393Z,32.70
2018-09-05T01:06:34.400Z,31.90
2018-09-05T01:07:34.366Z,30.30
2018-09-05T01:08:34.357Z,32.10
2018-09-05T01:09:34.350Z,32.60
2018-09-05T01:10:34.326Z,33.30
2018-09-05T01:11:34.342Z,32.30
2018-09-05T01:12:34.305Z,34.70
2018-09-05T01:13:34.300Z,32.50
2018-09-05T01:14:34.284Z,32.10
2018-09-05T01:15:34.312Z,32.00
2018-09-05T01:16:34.291Z,35.30
2018-09-05T01:17:34.259Z,32.80
2018-09-05T01:18:34.254Z,32.00
2018-09-05T01:19:34.238Z,31.60
2018-09-05T01:20:34.231Z,33.10
2018-09-05T01:21:34.243Z,32.30
2018-09-05T01:22:34.198Z,33.00
2018-09-05T01:23:34.258Z,32.50
2018-09-05T01:24:34.181Z,33.70
2018-09-05T01:25:34.176Z,34.60
2018-09-05T01:26:34.195Z,31.60
2018-09-05T01:27:34.151Z,32.70
2018-09-05T01:28:34.143Z,34.50
2018-09-05T01:29:34.122Z,34.30
2018-09-05T01:30:34.121Z,35.60
2018-09-05T01:31:34.141Z,33.60
2018-09-05T01:32:34.101Z,33.80
2018-09-05T01:33:34.067Z,33.40
2018-09-05T01:34:34.058Z,33.50
2018-09-05T01:35:34.055Z,33.60
2018-09-05T01:36:34.082Z,33.90
2018-09-05T01:37:34.039Z,33.80
2018-09-05T01:38:34.018Z,34.80
2018-09-05T01:39:34.002Z,34.20
2018-09-05T01:40:33.998Z,33.70
2018-09-05T01:41:34.018Z,31.80
2018-09-05T01:42:33.970Z,32.20
2018-09-05T01:43:33.968Z,33.90
2018-09-05T01:44:33.976Z,35.00
2018-09-05T01:45:33.939Z,33.40
2018-09-05T01:46:33.926Z,33.10
2018-09-05T01:47:33.926Z,35.40
2018-09-05T01:48:33.906Z,34.70
2018-09-05T01:49:33.936Z,35.30
2018-09-05T01:50:33.898Z,34.70
2018-09-05T01:51:33.882Z,34.10
2018-09-05T01:52:33.872Z,36.80
2018-09-05T01:53:33.858Z,35.00
2018-09-05T01:54:33.897Z,34.30
2018-09-05T01:55:33.844Z,37.40
2018-09-05T01:56:33.824Z,34.90
2018-09-05T01:57:33.822Z,34.50
2018-09-05T01:58:33.807Z,36.10
2018-09-05T01:59:33.818Z,34.20
2018-09-05T02:00:33.805Z,34.80
2018-09-05T02:01:33.785Z,36.80
2018-09-05T02:02:33.761Z,36.00
2018-09-05T02:03:33.746Z,35.30
2018-09-05T02:04:33.740Z,37.00
2018-09-05T02:05:33.755Z,37.00
2018-09-05T02:06:33.711Z,35.60
2018-09-05T02:07:33.711Z,37.10
2018-09-05T02:08:33.854Z,36.40
2018-09-05T02:09:33.680Z,35.30
2018-09-05T02:10:33.709Z,35.20
2018-09-05T02:11:33.693Z,35.90
2018-09-05T02:12:33.659Z,39.60
2018-09-05T02:13:33.637Z,33.20
2018-09-05T02:14:33.627Z,36.30
2018-09-05T02:15:33.619Z,36.80
2018-09-05T02:16:33.630Z,35.60
2018-09-05T02:17:33.597Z,35.60
2018-09-05T02:18:33.578Z,33.00
2018-09-05T02:19:33.572Z,37.90
2018-09-05T02:20:33.584Z,37.40
2018-09-05T02:21:33.540Z,37.50
2018-09-05T02:22:33.558Z,36.70
2018-09-05T02:23:33.518Z,37.90
2018-09-05T02:24:33.509Z,34.70
2018-09-05T02:25:33.530Z,37.50
2018-09-05T02:26:33.479Z,37.60
2018-09-05T02:27:33.475Z,36.00
2018-09-05T02:28:33.455Z,38.90
2018-09-05T02:29:33.459Z,35.40
2018-09-05T02:30:33.481Z,34.90
2018-09-05T02:31:33.427Z,34.60
2018-09-05T02:32:33.418Z,33.70
2018-09-05T02:33:33.406Z,33.00
2018-09-05T02:34:33.396Z,34.70
2018-09-05T02:35:33.437Z,33.40
2018-09-05T02:36:33.375Z,33.50
2018-09-05T02:37:33.359Z,34.40
2018-09-05T02:38:33.352Z,34.20
2018-09-05T02:39:33.336Z,34.90
2018-09-05T02:40:33.440Z,35.80
2018-09-05T02:41:33.319Z,35.80
2018-09-05T02:42:33.305Z,36.20
2018-09-05T02:43:33.292Z,35.60
2018-09-05T02:44:33.285Z,33.90
2018-09-05T02:45:33.308Z,35.00
2018-09-05T02:46:33.260Z,33.90
2018-09-05T02:47:33.258Z,34.70
2018-09-05T02:48:33.234Z,34.00
2018-09-05T02:49:33.229Z,37.90
2018-09-05T02:50:33.242Z,38.40
2018-09-05T02:51:33.250Z,37.90
2018-09-05T02:52:33.192Z,35.30
2018-09-05T02:53:33.194Z,33.10
2018-09-05T02:54:33.179Z,36.30
2018-09-05T02:55:33.168Z,35.40
2018-09-05T02:56:33.187Z,34.30
2018-09-05T02:57:33.660Z,35.50
2018-09-05T02:58:33.135Z,33.80
2018-09-05T02:59:33.121Z,33.30
2018-09-05T03:00:33.112Z,34.20
2018-09-05T03:01:33.101Z,34.90
2018-09-05T03:02:33.130Z,34.40
2018-09-05T03:03:33.079Z,35.00
2018-09-05T03:04:33.069Z,35.30
2018-09-05T03:05:33.057Z,35.90
2018-09-05T03:06:33.045Z,33.90
2018-09-05T03:07:33.076Z,33.90
2018-09-05T03:08:33.029Z,33.80
2018-09-05T03:09:33.010Z,34.90
2018-09-05T03:10:33.004Z,31.60
2018-09-05T03:11:32.994Z,33.00
2018-09-05T03:12:33.022Z,31.70
2018-09-05T03:13:32.974Z,32.60
2018-09-05T03:14:32.963Z,31.40
2018-09-05T03:15:32.985Z,32.20
2018-09-05T03:16:32.939Z,32.40
2018-09-05T03:17:32.964Z,31.00
2018-09-05T03:18:32.919Z,31.00
2018-09-05T03:19:32.902Z,30.70
2018-09-05T03:20:32.884Z,32.10
2018-09-05T03:21:32.883Z,31.40
2018-09-05T03:22:32.897Z,31.20
2018-09-05T03:23:32.917Z,31.50
2018-09-05T03:24:32.844Z,30.70
2018-09-05T03:25:32.827Z,30.60
2018-09-05T03:26:32.816Z,31.10
2018-09-05T03:27:32.804Z,31.50
2018-09-05T03:28:32.824Z,31.60
2018-09-05T03:29:32.783Z,30.90
2018-09-05T03:30:32.767Z,31.60
2018-09-05T03:31:32.763Z,31.10
2018-09-05T03:32:32.901Z,32.10
2018-09-05T03:33:32.768Z,29.60
2018-09-05T03:34:32.729Z,31.40
2018-09-05T03:35:32.713Z,31.80
2018-09-05T03:36:32.710Z,31.70
2018-09-05T03:37:32.688Z,32.20
2018-09-05T03:38:32.744Z,31.10
2018-09-05T03:39:32.667Z,33.60
2018-09-05T03:40:32.661Z,35.80
2018-09-05T03:41:32.655Z,33.10
2018-09-05T03:42:32.641Z,34.90
2018-09-05T03:43:32.674Z,34.90
2018-09-05T03:44:32.650Z,35.30
2018-09-05T03:45:32.618Z,35.90
2018-09-05T03:46:32.610Z,35.30
2018-09-05T03:47:32.582Z,36.00
2018-09-05T03:48:32.624Z,34.60
2018-09-05T03:49:32.575Z,35.40
2018-09-05T03:50:32.554Z,35.10
2018-09-05T03:51:32.546Z,37.00
2018-09-05T03:52:32.532Z,38.10
2018-09-05T03:53:32.590Z,36.10
2018-09-05T03:54:32.506Z,34.50
2018-09-05T03:55:32.504Z,32.50
2018-09-05T03:56:32.484Z,33.80
2018-09-05T03:57:32.476Z,32.40
2018-09-05T03:58:32.493Z,34.70
2018-09-05T03:59:32.485Z,33.00
2018-09-05T04:00:32.440Z,34.00
2018-09-05T04:01:32.420Z,35.80
2018-09-05T04:02:32.413Z,34.20
2018-09-05T04:03:32.408Z,36.60
2018-09-05T04:04:32.426Z,36.20
2018-09-05T04:05:32.385Z,38.10
2018-09-05T04:06:32.374Z,36.00
2018-09-05T04:07:32.353Z,36.20
2018-09-05T04:08:32.348Z,36.30
2018-09-05T04:09:32.362Z,36.80
2018-09-05T04:10:32.328Z,37.30
2018-09-05T04:11:32.313Z,37.70
2018-09-05T04:12:32.307Z,35.30
2018-09-05T04:13:32.289Z,32.70
2018-09-05T04:14:32.326Z,34.20
2018-09-05T04:15:32.267Z,34.70
2018-09-05T04:16:32.262Z,35.40
2018-09-05T04:17:32.250Z,34.40
2018-09-05T04:18:32.244Z,34.40
2018-09-05T04:19:32.261Z,34.10
2018-09-05T04:20:32.214Z,36.10
2018-09-05T04:21:32.198Z,34.90
2018-09-05T04:22:32.189Z,34.70
2018-09-05T04:23:32.180Z,35.80
2018-09-05T04:24:32.210Z,35.80
2018-09-05T04:25:32.164Z,35.50
2018-09-05T04:26:32.142Z,35.80
2018-09-05T04:27:32.166Z,35.20
2018-09-05T04:28:32.121Z,33.70
2018-09-05T04:29:32.236Z,34.90
2018-09-05T04:30:32.114Z,33.80
2018-09-05T04:31:32.100Z,30.20
2018-09-05T04:32:32.094Z,29.40
2018-09-05T04:33:32.108Z,28.30
2018-09-05T04:34:32.113Z,28.60
2018-09-05T04:35:32.058Z,28.10
2018-09-05T04:36:32.044Z,26.80
2018-09-05T04:37:32.037Z,27.90
2018-09-05T04:38:32.022Z,28.40
2018-09-05T04:39:32.042Z,26.90
2018-09-05T04:40:32.006Z,26.70
2018-09-05T04:41:32.014Z,27.00
2018-09-05T04:42:31.980Z,25.30
2018-09-05T04:43:31.968Z,24.50
2018-09-05T04:44:31.958Z,23.80
2018-09-05T04:45:31.978Z,22.30
2018-09-05T04:46:31.930Z,22.10
2018-09-05T04:47:31.958Z,21.60
2018-09-05T04:48:31.911Z,20.90
2018-09-05T04:49:31.905Z,22.40
2018-09-05T04:50:31.886Z,20.70
2018-09-05T04:51:31.882Z,21.30
2018-09-05T04:52:31.916Z,21.30
2018-09-05T04:53:31.860Z,20.80
2018-09-05T04:54:31.860Z,20.50
2018-09-05T04:55:31.830Z,22.00
2018-09-05T04:56:31.819Z,23.60
2018-09-05T04:57:31.839Z,19.90
2018-09-05T04:58:31.867Z,21.30
2018-09-05T04:59:31.903Z,19.20
2018-09-05T05:00:31.961Z,20.10
2018-09-05T05:01:32.132Z,19.20
2018-09-05T05:02:33.140Z,19.30
2018-09-05T05:03:31.901Z,19.70
2018-09-05T05:04:32.027Z,20.00
2018-09-05T05:05:32.152Z,18.90
2018-09-05T05:06:31.920Z,18.90
2018-09-05T05:07:31.908Z,17.20
2018-09-05T05:08:32.233Z,16.70
2018-09-05T05:09:32.261Z,17.30
2018-09-05T05:10:31.886Z,17.20
2018-09-05T05:11:31.654Z,18.40
2018-09-05T05:12:31.685Z,18.30
2018-09-05T05:13:32.660Z,19.00
2018-09-05T05:14:32.630Z,19.60
2018-09-05T05:15:32.344Z,18.50
2018-09-05T05:16:31.592Z,18.20
2018-09-05T05:17:31.634Z,18.50
2018-09-05T05:18:31.572Z,19.40
2018-09-05T05:19:31.558Z,18.70
2018-09-05T05:20:31.590Z,19.10
2018-09-05T05:21:31.552Z,19.60
2018-09-05T05:22:31.582Z,19.70
2018-09-05T05:23:31.532Z,17.40
2018-09-05T05:24:31.508Z,19.20
2018-09-05T05:25:31.490Z,19.60
2018-09-05T05:26:31.481Z,21.00
2018-09-05T05:27:31.503Z,18.60
2018-09-05T05:28:31.463Z,22.40
2018-09-05T05:29:31.444Z,27.40
2018-09-05T05:30:31.450Z,21.20
2018-09-05T05:31:31.414Z,15.70
2018-09-05T05:32:31.534Z,17.50
2018-09-05T05:33:31.406Z,24.70
2018-09-05T05:34:31.392Z,19.40
2018-09-05T05:35:31.388Z,28.20
2018-09-05T05:36:31.386Z,20.00
2018-09-05T05:37:31.407Z,20.10
2018-09-05T05:38:31.351Z,26.00
2018-09-05T05:39:31.339Z,21.10
2018-09-05T05:40:31.334Z,19.90
2018-09-05T05:41:31.324Z,21.20
2018-09-05T05:42:31.342Z,32.80
2018-09-05T05:43:31.292Z,24.90
2018-09-05T05:44:31.288Z,25.70
2018-09-05T05:45:31.274Z,27.80
2018-09-05T05:46:31.261Z,31.20
2018-09-05T05:47:31.276Z,30.90
2018-09-05T05:48:31.231Z,29.90
2018-09-05T05:49:31.226Z,33.10
2018-09-05T05:50:31.216Z,30.60
2018-09-05T05:51:31.197Z,40.80
2018-09-05T05:52:31.220Z,29.20
2018-09-05T05:53:31.183Z,25.70
2018-09-05T05:54:31.168Z,31.50
2018-09-05T05:55:31.162Z,23.20
2018-09-05T05:56:31.144Z,24.20
2018-09-05T05:57:31.165Z,35.00
2018-09-05T05:58:31.128Z,24.90
2018-09-05T05:59:31.136Z,23.30
2018-09-05T06:00:31.106Z,21.60
2018-09-05T06:01:31.169Z,23.90
2018-09-05T06:02:31.106Z,23.80
2018-09-05T06:03:32.063Z,33.80
2018-09-05T06:04:31.060Z,23.50
2018-09-05T06:05:31.034Z,20.10
2018-09-05T06:06:31.054Z,20.00
2018-09-05T06:07:31.058Z,19.80
2018-09-05T06:08:31.001Z,18.40
2018-09-05T06:09:30.996Z,19.90
2018-09-05T06:10:30.978Z,18.00
2018-09-05T06:11:30.966Z,16.20
2018-09-05T06:12:31.004Z,15.90
2018-09-05T06:13:30.950Z,16.70
2018-09-05T06:14:30.934Z,15.30
2018-09-05T06:15:30.987Z,16.00
2018-09-05T06:16:30.912Z,17.30
2018-09-05T06:17:30.958Z,14.90
2018-09-05T06:18:30.896Z,12.50
2018-09-05T06:19:30.888Z,12.30
2018-09-05T06:20:30.878Z,11.30
2018-09-05T06:21:30.862Z,11.40
2018-09-05T06:22:30.882Z,12.10
2018-09-05T06:23:30.872Z,12.50
2018-09-05T06:24:30.828Z,10.80
2018-09-05T06:25:30.812Z,11.60
2018-09-05T06:26:30.798Z,10.40
2018-09-05T06:27:30.792Z,9.90
2018-09-05T06:28:30.801Z,10.30
2018-09-05T06:29:30.772Z,10.00
2018-09-05T06:30:30.877Z,9.30
2018-09-05T06:31:30.750Z,9.40
2018-09-05T06:32:30.737Z,9.80
2018-09-05T06:33:30.752Z,9.10
2018-09-05T06:34:30.714Z,9.30
2018-09-05T06:35:30.722Z,9.10
2018-09-05T06:36:30.692Z,11.40
2018-09-05T06:37:30.685Z,9.90
2018-09-05T06:38:30.704Z,16.60
2018-09-05T06:39:30.671Z,18.70
2018-09-05T06:40:30.709Z,31.60
2018-09-05T06:41:30.644Z,26.70
2018-09-05T06:42:30.633Z,22.40
2018-09-05T06:43:30.641Z,19.80
2018-09-05T06:44:30.628Z,18.50
2018-09-05T06:45:30.709Z,11.30
2018-09-05T06:46:30.589Z,11.10
2018-09-05T06:47:30.580Z,10.70
2018-09-05T06:48:30.564Z,9.60
2018-09-05T06:49:30.558Z,8.90
2018-09-05T06:50:30.572Z,9.50
2018-09-05T06:51:30.612Z,9.00
2018-09-05T06:52:30.523Z,9.80
2018-09-05T06:53:30.513Z,7.90
2018-09-05T06:54:30.518Z,8.00
2018-09-05T06:55:30.523Z,8.40
2018-09-05T06:56:30.476Z,7.50
2018-09-05T06:57:30.463Z,7.60
2018-09-05T06:58:30.453Z,7.30
2018-09-05T06:59:30.456Z,7.70
2018-09-05T07:00:30.465Z,7.90
2018-09-05T07:01:30.450Z,7.10
2018-09-05T07:02:30.416Z,7.50
2018-09-05T07:03:30.443Z,7.10
2018-09-05T07:04:30.389Z,8.50
2018-09-05T07:05:30.378Z,8.70
2018-09-05T07:06:30.406Z,8.40
2018-09-05T07:07:30.349Z,8.40
2018-09-05T07:08:30.350Z,8.20
2018-09-05T07:09:30.318Z,8.10
2018-09-05T07:10:30.308Z,8.50
2018-09-05T07:11:30.348Z,8.60
2018-09-05T07:12:30.322Z,9.70
2018-09-05T07:13:30.282Z,9.40
2018-09-05T07:14:30.365Z,9.00
2018-09-05T07:15:30.260Z,16.60
2018-09-05T07:16:30.250Z,14.10
2018-09-05T07:17:30.317Z,11.30
2018-09-05T07:18:30.224Z,10.90
2018-09-05T07:19:30.216Z,14.20
2018-09-05T07:20:30.234Z,10.60
2018-09-05T07:21:30.229Z,9.80
2018-09-05T07:22:30.212Z,9.70
2018-09-05T07:23:30.173Z,8.40
2018-09-05T07:24:30.157Z,8.70
2018-09-05T07:25:30.149Z,9.10
2018-09-05T07:26:30.152Z,9.30
2018-09-05T07:27:30.167Z,9.20
2018-09-05T07:28:30.112Z,9.00
2018-09-05T07:29:30.103Z,8.70
2018-09-05T07:30:30.177Z,9.20
2018-09-05T07:31:30.081Z,9.00
2018-09-05T07:32:30.093Z,9.30
2018-09-05T07:33:30.057Z,9.30
2018-09-05T07:34:30.055Z,9.40
2018-09-05T07:35:30.042Z,10.00
2018-09-05T07:36:30.028Z,9.10
2018-09-05T07:37:30.039Z,10.00
2018-09-05T07:38:30.009Z,15.30
2018-09-05T07:39:29.995Z,10.00
2018-09-05T07:40:29.990Z,9.80
2018-09-05T07:41:29.986Z,9.40
2018-09-05T07:42:30.000Z,9.10
2018-09-05T07:43:29.957Z,8.50
2018-09-05T07:44:29.945Z,9.30
2018-09-05T07:45:29.942Z,9.90
2018-09-05T07:46:29.929Z,10.00
2018-09-05T07:47:29.949Z,11.20
2018-09-05T07:48:29.950Z,11.50
2018-09-05T07:49:29.927Z,14.00
2018-09-05T07:50:29.925Z,12.00
2018-09-05T07:51:29.861Z,14.40
2018-09-05T07:52:29.862Z,12.90
2018-09-05T07:53:29.900Z,9.90
2018-09-05T07:54:29.831Z,9.70
2018-09-05T07:55:29.819Z,8.40
2018-09-05T07:56:29.807Z,7.70
2018-09-05T07:57:29.803Z,7.40
2018-09-05T07:58:29.838Z,7.20
2018-09-05T07:59:29.773Z,8.60
2018-09-05T08:00:29.763Z,7.10
2018-09-05T08:01:29.778Z,8.40
2018-09-05T08:02:29.748Z,7.50
2018-09-05T08:03:29.738Z,6.90
2018-09-05T08:04:29.761Z,6.60
2018-09-05T08:05:29.709Z,6.90
2018-09-05T08:06:29.701Z,7.40
2018-09-05T08:07:29.678Z,6.10
2018-09-05T08:08:29.673Z,6.30
2018-09-05T08:09:29.697Z,6.40
2018-09-05T08:10:29.654Z,6.20
2018-09-05T08:11:29.639Z,5.80
2018-09-05T08:12:29.625Z,6.20
2018-09-05T08:13:29.622Z,5.90
2018-09-05T08:14:29.660Z,6.40
2018-09-05T08:15:29.616Z,5.80
2018-09-05T08:16:29.595Z,6.50
2018-09-05T08:17:29.583Z,6.50
2018-09-05T08:18:29.603Z,6.20
2018-09-05T08:19:29.562Z,6.10
2018-09-05T08:20:29.548Z,5.90
2018-09-05T08:21:29.530Z,5.70
2018-09-05T08:22:29.563Z,5.40
2018-09-05T08:23:29.526Z,5.80
2018-09-05T08:24:29.511Z,6.00
2018-09-05T08:25:29.529Z,5.40
2018-09-05T08:26:29.475Z,5.50
2018-09-05T08:27:29.471Z,5.30
2018-09-05T08:28:29.484Z,6.20
2018-09-05T08:29:29.446Z,5.70
2018-09-05T08:30:29.450Z,5.70
2018-09-05T08:31:29.423Z,5.50
2018-09-05T08:32:29.417Z,4.90
2018-09-05T08:33:29.429Z,5.50
2018-09-05T08:34:29.387Z,5.60
2018-09-05T08:35:29.724Z,5.40
2018-09-05T08:36:29.471Z,4.90
2018-09-05T08:37:29.617Z,5.50
2018-09-05T08:38:29.610Z,5.10
2018-09-05T08:39:29.335Z,4.80
2018-09-05T08:40:29.356Z,5.50
2018-09-05T08:41:29.419Z,5.00
2018-09-05T08:42:29.518Z,5.00
2018-09-05T08:43:29.341Z,4.80
2018-09-05T08:44:29.451Z,5.10
2018-09-05T08:45:29.662Z,5.40
2018-09-05T08:46:29.278Z,7.00
2018-09-05T08:47:29.428Z,6.30
2018-09-05T08:48:29.329Z,5.80
2018-09-05T08:49:29.215Z,5.50
2018-09-05T08:50:29.202Z,6.60
2018-09-05T08:51:29.186Z,6.70
2018-09-05T08:52:29.233Z,5.40
2018-09-05T08:53:29.169Z,5.30
2018-09-05T08:54:29.157Z,5.00
2018-09-05T08:55:29.234Z,4.80
2018-09-05T08:56:29.161Z,4.90
2018-09-05T08:57:29.167Z,5.00
2018-09-05T08:58:29.115Z,4.70
2018-09-05T08:59:29.101Z,4.40
2018-09-05T09:00:29.087Z,4.80
2018-09-05T09:01:29.084Z,5.20
2018-09-05T09:02:29.097Z,4.90
2018-09-05T09:03:29.148Z,4.30
2018-09-05T09:04:29.086Z,4.30
2018-09-05T09:05:29.035Z,4.30
2018-09-05T09:06:29.031Z,4.50
2018-09-05T09:07:29.011Z,4.40
2018-09-05T09:08:29.043Z,4.10
2018-09-05T09:09:28.981Z,4.40
2018-09-05T09:10:28.984Z,4.70
2018-09-05T09:11:29.038Z,4.70
2018-09-05T09:12:28.951Z,4.40
2018-09-05T09:13:28.993Z,4.50
2018-09-05T09:14:28.940Z,4.30
2018-09-05T09:15:28.933Z,4.60
2018-09-05T09:16:28.904Z,4.50
2018-09-05T09:17:28.918Z,4.70
2018-09-05T09:18:28.944Z,4.50
2018-09-05T09:19:28.886Z,4.40
2018-09-05T09:20:28.876Z,4.60
2018-09-05T09:21:28.864Z,4.20
2018-09-05T09:22:28.846Z,4.40
2018-09-05T09:23:28.879Z,4.60
2018-09-05T09:24:28.829Z,4.60
2018-09-05T09:25:28.820Z,4.50
2018-09-05T09:26:28.846Z,4.00
2018-09-05T09:27:28.802Z,4.30
2018-09-05T09:28:28.796Z,3.90
2018-09-05T09:29:28.770Z,4.00
2018-09-05T09:30:28.794Z,3.90
2018-09-05T09:31:28.754Z,4.10
2018-09-05T09:32:28.788Z,3.80
2018-09-05T09:33:28.738Z,4.30
2018-09-05T09:34:28.716Z,4.90
2018-09-05T09:35:28.827Z,4.30
2018-09-05T09:36:28.699Z,4.10
2018-09-05T09:37:28.730Z,3.90
2018-09-05T09:38:28.682Z,3.70
2018-09-05T09:39:28.664Z,3.60
2018-09-05T09:40:28.700Z,3.80
2018-09-05T09:41:28.659Z,3.50
2018-09-05T09:42:28.635Z,3.50
2018-09-05T09:43:28.632Z,3.80
2018-09-05T09:44:28.618Z,3.30
2018-09-05T09:45:28.641Z,4.00
2018-09-05T09:46:28.653Z,4.90
2018-09-05T09:47:28.595Z,4.60
2018-09-05T09:48:28.581Z,3.90
2018-09-05T09:49:28.551Z,5.00
2018-09-05T09:50:28.548Z,7.00
2018-09-05T09:51:28.566Z,5.10
2018-09-05T09:52:28.528Z,3.80
2018-09-05T09:53:28.517Z,3.70
2018-09-05T09:54:28.509Z,3.60
2018-09-05T09:55:28.501Z,3.90
2018-09-05T09:56:28.546Z,3.30
2018-09-05T09:57:28.506Z,3.50
2018-09-05T09:58:28.466Z,3.30
2018-09-05T09:59:28.453Z,3.50
2018-09-05T10:00:28.462Z,3.50
2018-09-05T10:01:28.435Z,3.60
2018-09-05T10:02:28.462Z,3.30
2018-09-05T10:03:28.497Z,3.30
2018-09-05T10:04:28.413Z,3.70
2018-09-05T10:05:28.392Z,3.40
2018-09-05T10:06:28.375Z,3.60
2018-09-05T10:07:28.409Z,3.40
2018-09-05T10:08:28.367Z,3.20
2018-09-05T10:09:28.354Z,3.20
2018-09-05T10:10:28.371Z,3.30
2018-09-05T10:11:28.339Z,3.40
2018-09-05T10:12:28.370Z,3.30
2018-09-05T10:13:28.314Z,3.20
2018-09-05T10:14:28.297Z,3.30
2018-09-05T10:15:28.299Z,3.50
2018-09-05T10:16:28.290Z,3.10
2018-09-05T10:17:28.314Z,3.20
2018-09-05T10:18:28.290Z,2.90
2018-09-05T10:19:28.268Z,3.10
2018-09-05T10:20:28.244Z,3.60
2018-09-05T10:21:28.248Z,4.00
2018-09-05T10:22:28.259Z,3.60
2018-09-05T10:23:28.245Z,3.40
2018-09-05T10:24:28.248Z,3.90
2018-09-05T10:25:28.230Z,3.00
2018-09-05T10:26:28.188Z,2.90
2018-09-05T10:27:28.181Z,3.20
2018-09-05T10:28:28.171Z,3.20
2018-09-05T10:29:28.204Z,3.20
2018-09-05T10:30:28.159Z,3.30
2018-09-05T10:31:28.146Z,3.30
2018-09-05T10:32:28.137Z,3.30
2018-09-05T10:33:28.118Z,3.30
2018-09-05T10:34:28.161Z,3.50
2018-09-05T10:35:28.104Z,3.30
2018-09-05T10:36:28.094Z,3.20
2018-09-05T10:37:28.078Z,3.20
2018-09-05T10:38:28.066Z,3.40
2018-09-05T10:39:28.104Z,3.30
2018-09-05T10:40:28.046Z,4.00
2018-09-05T10:41:28.040Z,4.20
2018-09-05T10:42:28.028Z,4.70
2018-09-05T10:43:28.012Z,6.70
2018-09-05T10:44:28.052Z,7.10
2018-09-05T10:45:28.001Z,4.90
2018-09-05T10:46:27.985Z,7.30
2018-09-05T10:47:27.982Z,9.50
2018-09-05T10:48:27.960Z,8.20
2018-09-05T10:49:27.992Z,3.80
2018-09-05T10:50:27.980Z,3.70
2018-09-05T10:51:27.932Z,3.80
2018-09-05T10:52:27.920Z,3.60
2018-09-05T10:53:27.906Z,3.70
2018-09-05T10:54:27.897Z,4.40
2018-09-05T10:55:28.010Z,3.80
2018-09-05T10:56:27.881Z,4.30
2018-09-05T10:57:27.865Z,4.50
2018-09-05T10:58:27.847Z,3.80
2018-09-05T10:59:27.842Z,3.70
2018-09-05T11:00:27.869Z,4.00
2018-09-05T11:01:27.816Z,4.60
2018-09-05T11:02:27.808Z,3.60
2018-09-05T11:03:27.794Z,3.90
2018-09-05T11:04:27.788Z,4.10
2018-09-05T11:05:27.814Z,3.40
2018-09-05T11:06:27.769Z,3.40
2018-09-05T11:07:27.751Z,3.70
2018-09-05T11:08:27.744Z,3.70
2018-09-05T11:09:27.736Z,3.80
2018-09-05T11:10:27.771Z,3.80
2018-09-05T11:11:27.710Z,3.90
2018-09-05T11:12:27.699Z,4.00
2018-09-05T11:13:27.699Z,3.80
2018-09-05T11:14:27.678Z,4.30
2018-09-05T11:15:27.701Z,4.40
2018-09-05T11:16:27.660Z,4.00
2018-09-05T11:17:27.655Z,4.10
2018-09-05T11:18:27.636Z,4.10
2018-09-05T11:19:27.682Z,4.40
2018-09-05T11:20:27.646Z,4.20
2018-09-05T11:21:27.612Z,4.30
2018-09-05T11:22:27.603Z,4.40
2018-09-05T11:23:27.585Z,4.10
2018-09-05T11:24:27.595Z,4.10
2018-09-05T11:25:27.584Z,4.10
2018-09-05T11:26:27.560Z,4.10
2018-09-05T11:27:27.590Z,3.90
2018-09-05T11:28:27.545Z,4.00
2018-09-05T11:29:27.528Z,3.80
2018-09-05T11:30:27.512Z,4.20
2018-09-05T11:31:27.504Z,3.70
2018-09-05T11:32:27.532Z,3.90
2018-09-05T11:33:27.484Z,3.80
2018-09-05T11:34:27.473Z,3.80
2018-09-05T11:35:27.458Z,3.50
2018-09-05T11:36:27.449Z,3.80
2018-09-05T11:37:27.476Z,3.70
2018-09-05T11:38:27.431Z,3.60
2018-09-05T11:39:27.413Z,3.80
2018-09-05T11:40:27.407Z,4.00
2018-09-05T11:41:27.392Z,3.50
2018-09-05T11:42:27.425Z,3.50
2018-09-05T11:43:27.375Z,3.90
2018-09-05T11:44:27.366Z,3.40
2018-09-05T11:45:27.365Z,3.70
2018-09-05T11:46:27.355Z,3.40
2018-09-05T11:47:27.358Z,3.50
2018-09-05T11:48:27.323Z,3.50
2018-09-05T11:49:27.353Z,3.40
2018-09-05T11:50:27.298Z,3.70
2018-09-05T11:51:27.289Z,3.40
2018-09-05T11:52:27.274Z,3.80
2018-09-05T11:53:27.278Z,3.30
2018-09-05T11:54:27.389Z,3.60
2018-09-05T11:55:27.243Z,3.70
2018-09-05T11:56:27.231Z,3.70
2018-09-05T11:57:27.218Z,3.90
2018-09-05T11:58:27.209Z,3.50
2018-09-05T11:59:27.244Z,3.80
2018-09-05T12:00:27.186Z,4.10
2018-09-05T12:01:27.175Z,4.00
2018-09-05T12:02:27.158Z,3.90
2018-09-05T12:03:27.159Z,4.10
2018-09-05T12:04:27.193Z,3.60
2018-09-05T12:05:27.135Z,3.70
2018-09-05T12:06:27.124Z,3.40
2018-09-05T12:07:27.111Z,3.30
2018-09-05T12:08:27.105Z,3.60
2018-09-05T12:09:27.135Z,3.30
2018-09-05T12:10:27.079Z,3.10
2018-09-05T12:11:27.129Z,3.40
2018-09-05T12:12:27.059Z,3.70
2018-09-05T12:13:27.052Z,3.30
2018-09-05T12:14:27.043Z,3.60
2018-09-05T12:15:27.041Z,3.50
2018-09-05T12:16:27.059Z,4.60
2018-09-05T12:17:27.017Z,5.10
2018-09-05T12:18:26.999Z,5.90
2018-09-05T12:19:26.988Z,4.20
2018-09-05T12:20:26.983Z,3.70
2018-09-05T12:21:26.991Z,3.30
2018-09-05T12:22:26.951Z,3.30
2018-09-05T12:23:26.945Z,3.30
2018-09-05T12:24:26.937Z,3.30
2018-09-05T12:25:26.925Z,3.50
2018-09-05T12:26:26.945Z,3.20
2018-09-05T12:27:26.949Z,3.30
2018-09-05T12:28:26.896Z,3.40
2018-09-05T12:29:26.879Z,3.20
2018-09-05T12:30:26.862Z,3.50
2018-09-05T12:31:26.847Z,3.20
2018-09-05T12:32:26.885Z,3.50
2018-09-05T12:33:26.831Z,3.40
2018-09-05T12:34:26.817Z,3.30
2018-09-05T12:35:26.812Z,3.30
2018-09-05T12:36:26.797Z,3.10
2018-09-05T12:37:26.828Z,2.90
2018-09-05T12:38:26.863Z,3.10
2018-09-05T12:39:26.768Z,3.30
2018-09-05T12:40:26.762Z,3.50
2018-09-05T12:41:26.740Z,3.20
2018-09-05T12:42:26.773Z,3.30
2018-09-05T12:43:26.763Z,3.10
2018-09-05T12:44:26.724Z,3.20
2018-09-05T12:45:26.709Z,3.20
2018-09-05T12:46:26.697Z,3.60
2018-09-05T12:47:26.687Z,3.20
2018-09-05T12:48:26.711Z,3.40
2018-09-05T12:49:26.668Z,3.30
2018-09-05T12:50:26.660Z,3.00
2018-09-05T12:51:26.637Z,3.30
2018-09-05T12:52:26.633Z,3.00
2018-09-05T12:53:26.662Z,3.30
2018-09-05T12:54:26.612Z,3.10
2018-09-05T12:55:26.599Z,3.70
2018-09-05T12:56:26.580Z,4.60
2018-09-05T12:57:26.582Z,3.80
2018-09-05T12:58:26.601Z,3.60
2018-09-05T12:59:26.634Z,3.50
2018-09-05T13:00:26.545Z,3.60
2018-09-05T13:01:26.543Z,4.80
2018-09-05T13:02:26.526Z,5.30
2018-09-05T13:03:26.564Z,5.50
2018-09-05T13:04:26.515Z,4.60